sensor_id;sensor_type;location;lat;lon;timestamp;pressure;altitude;pressure_sealevel;temperature;humidity
13407;BME280;6774;48.208;10.766;2023-03-01T00:01:01;96110.31;;;1.89;73.74
13407;BME280;6774;48.208;10.766;2023-03-01T00:03:29;96114.94;;;1.96;73.97
13407;BME280;6774;48.208;10.766;2023-03-01T00:05:58;96105.59;;;1.94;73.03
13407;BME280;6774;48.208;10.766;2023-03-01T00:08:27;96105.34;;;1.97;73.10
13407;BME280;6774;48.208;10.766;2023-03-01T00:11:00;96107.59;;;1.90;73.65
13407;BME280;6774;48.208;10.766;2023-03-01T00:13:29;96105.13;;;1.89;74.03
13407;BME280;6774;48.208;10.766;2023-03-01T00:15:57;96096.75;;;1.85;73.78
13407;BME280;6774;48.208;10.766;2023-03-01T00:18:26;96099.69;;;1.69;73.40
13407;BME280;6774;48.208;10.766;2023-03-01T00:20:55;96103.34;;;1.89;73.75
13407;BME280;6774;48.208;10.766;2023-03-01T00:23:23;96097.69;;;1.95;73.27
13407;BME280;6774;48.208;10.766;2023-03-01T00:25:52;96096.03;;;1.94;73.98
13407;BME280;6774;48.208;10.766;2023-03-01T00:28:20;96088.34;;;1.93;74.19
13407;BME280;6774;48.208;10.766;2023-03-01T00:30:48;96082.16;;;1.83;73.91
13407;BME280;6774;48.208;10.766;2023-03-01T00:33:17;96085.34;;;1.97;73.14
13407;BME280;6774;48.208;10.766;2023-03-01T00:35:46;96077.81;;;1.94;74.00
13407;BME280;6774;48.208;10.766;2023-03-01T00:38:14;96087.00;;;1.98;73.17
13407;BME280;6774;48.208;10.766;2023-03-01T00:40:42;96077.22;;;2.02;73.09
13407;BME280;6774;48.208;10.766;2023-03-01T00:43:09;96081.34;;;2.05;73.55
13407;BME280;6774;48.208;10.766;2023-03-01T00:45:37;96088.66;;;1.99;72.74
13407;BME280;6774;48.208;10.766;2023-03-01T00:48:05;96078.59;;;2.06;73.37
13407;BME280;6774;48.208;10.766;2023-03-01T00:50:33;96073.56;;;1.93;73.43
13407;BME280;6774;48.208;10.766;2023-03-01T00:53:02;96070.00;;;1.94;73.09
13407;BME280;6774;48.208;10.766;2023-03-01T00:55:31;96080.28;;;1.96;73.31
13407;BME280;6774;48.208;10.766;2023-03-01T00:57:59;96070.94;;;1.93;73.29
13407;BME280;6774;48.208;10.766;2023-03-01T01:00:28;96063.03;;;1.84;74.02
13407;BME280;6774;48.208;10.766;2023-03-01T01:02:55;96070.94;;;1.93;73.62
13407;BME280;6774;48.208;10.766;2023-03-01T01:05:23;96065.63;;;1.95;73.16
13407;BME280;6774;48.208;10.766;2023-03-01T01:07:52;96047.41;;;1.95;73.06
13407;BME280;6774;48.208;10.766;2023-03-01T01:10:21;96049.41;;;2.03;73.29
13407;BME280;6774;48.208;10.766;2023-03-01T01:12:49;96053.88;;;2.00;73.03
13407;BME280;6774;48.208;10.766;2023-03-01T01:15:16;96047.53;;;1.93;73.39
13407;BME280;6774;48.208;10.766;2023-03-01T01:17:44;96045.97;;;1.91;73.70
13407;BME280;6774;48.208;10.766;2023-03-01T01:20:12;96034.13;;;1.98;73.81
13407;BME280;6774;48.208;10.766;2023-03-01T01:22:43;96034.13;;;1.98;74.41
13407;BME280;6774;48.208;10.766;2023-03-01T01:25:11;96034.00;;;1.99;73.25
13407;BME280;6774;48.208;10.766;2023-03-01T01:27:40;96033.78;;;1.91;73.55
13407;BME280;6774;48.208;10.766;2023-03-01T01:30:08;96025.28;;;1.89;73.32
13407;BME280;6774;48.208;10.766;2023-03-01T01:32:36;96018.78;;;1.95;74.31
13407;BME280;6774;48.208;10.766;2023-03-01T01:35:05;96020.16;;;1.99;73.20
13407;BME280;6774;48.208;10.766;2023-03-01T01:37:33;96014.97;;;1.99;73.43
13407;BME280;6774;48.208;10.766;2023-03-01T01:40:02;96011.09;;;1.93;74.06
13407;BME280;6774;48.208;10.766;2023-03-01T01:42:31;96016.03;;;1.96;73.58
13407;BME280;6774;48.208;10.766;2023-03-01T01:45:29;96008.72;;;1.90;74.67
13407;BME280;6774;48.208;10.766;2023-03-01T01:48:01;96017.47;;;1.89;74.12
13407;BME280;6774;48.208;10.766;2023-03-01T01:50:32;96000.69;;;1.93;73.90
13407;BME280;6774;48.208;10.766;2023-03-01T01:53:07;96016.28;;;1.82;74.86
13407;BME280;6774;48.208;10.766;2023-03-01T01:55:41;96017.94;;;1.94;74.16
13407;BME280;6774;48.208;10.766;2023-03-01T01:58:12;96018.16;;;1.91;73.66
13407;BME280;6774;48.208;10.766;2023-03-01T02:00:42;96008.00;;;1.88;73.87
13407;BME280;6774;48.208;10.766;2023-03-01T02:03:12;96005.31;;;1.79;73.44
13407;BME280;6774;48.208;10.766;2023-03-01T02:05:47;96010.41;;;1.80;74.38
13407;BME280;6774;48.208;10.766;2023-03-01T02:08:24;96003.53;;;1.79;73.60
13407;BME280;6774;48.208;10.766;2023-03-01T02:10:54;96002.38;;;1.83;73.77
13407;BME280;6774;48.208;10.766;2023-03-01T02:13:23;96003.06;;;1.85;74.06
13407;BME280;6774;48.208;10.766;2023-03-01T02:15:53;95994.88;;;1.90;73.68
13407;BME280;6774;48.208;10.766;2023-03-01T02:18:22;96001.16;;;1.87;73.29
13407;BME280;6774;48.208;10.766;2023-03-01T02:21:04;96001.31;;;1.75;74.10
13407;BME280;6774;48.208;10.766;2023-03-01T02:23:34;95999.06;;;1.70;74.00
13407;BME280;6774;48.208;10.766;2023-03-01T02:26:06;96001.06;;;1.78;73.43
13407;BME280;6774;48.208;10.766;2023-03-01T02:28:41;95995.50;;;1.71;74.17
13407;BME280;6774;48.208;10.766;2023-03-01T02:31:14;95984.41;;;1.69;73.55
13407;BME280;6774;48.208;10.766;2023-03-01T02:34:02;95994.56;;;1.83;74.22
13407;BME280;6774;48.208;10.766;2023-03-01T02:36:34;96000.47;;;1.85;73.65
13407;BME280;6774;48.208;10.766;2023-03-01T02:39:05;95988.75;;;1.80;73.64
13407;BME280;6774;48.208;10.766;2023-03-01T02:41:35;95991.22;;;1.81;73.33
13407;BME280;6774;48.208;10.766;2023-03-01T02:44:06;95986.28;;;1.78;73.35
13407;BME280;6774;48.208;10.766;2023-03-01T02:46:42;95976.13;;;1.75;73.25
13407;BME280;6774;48.208;10.766;2023-03-01T02:49:23;95971.41;;;1.69;72.74
13407;BME280;6774;48.208;10.766;2023-03-01T02:54:48;95965.03;;;1.62;72.42
13407;BME280;6774;48.208;10.766;2023-03-01T02:57:21;95968.09;;;1.67;72.98
13407;BME280;6774;48.208;10.766;2023-03-01T02:59:52;95969.31;;;1.52;72.97
13407;BME280;6774;48.208;10.766;2023-03-01T03:02:23;95967.03;;;1.69;72.83
13407;BME280;6774;48.208;10.766;2023-03-01T03:05:30;95977.44;;;1.69;72.46
13407;BME280;6774;48.208;10.766;2023-03-01T03:08:00;95969.03;;;1.77;73.09
13407;BME280;6774;48.208;10.766;2023-03-01T03:10:36;95969.75;;;1.68;73.10
13407;BME280;6774;48.208;10.766;2023-03-01T03:13:09;95974.47;;;1.74;72.65
13407;BME280;6774;48.208;10.766;2023-03-01T03:15:39;95972.78;;;1.73;73.79
13407;BME280;6774;48.208;10.766;2023-03-01T03:18:10;95968.75;;;1.80;73.29
13407;BME280;6774;48.208;10.766;2023-03-01T03:20:39;95967.81;;;1.81;74.16
13407;BME280;6774;48.208;10.766;2023-03-01T03:23:08;95975.78;;;1.68;74.46
13407;BME280;6774;48.208;10.766;2023-03-01T03:25:36;95969.50;;;1.71;73.96
13407;BME280;6774;48.208;10.766;2023-03-01T03:28:06;95968.41;;;1.74;73.78
13407;BME280;6774;48.208;10.766;2023-03-01T03:30:40;95977.69;;;1.66;74.19
13407;BME280;6774;48.208;10.766;2023-03-01T03:33:08;95972.69;;;1.63;74.71
13407;BME280;6774;48.208;10.766;2023-03-01T03:35:41;95971.66;;;1.66;74.19
13407;BME280;6774;48.208;10.766;2023-03-01T03:38:10;95967.28;;;1.66;74.57
13407;BME280;6774;48.208;10.766;2023-03-01T03:40:45;95963.59;;;1.69;73.94
13407;BME280;6774;48.208;10.766;2023-03-01T03:43:15;95963.38;;;1.61;73.82
13407;BME280;6774;48.208;10.766;2023-03-01T03:45:45;95970.81;;;1.54;74.20
13407;BME280;6774;48.208;10.766;2023-03-01T03:48:13;95966.66;;;1.63;74.79
13407;BME280;6774;48.208;10.766;2023-03-01T03:50:47;95966.94;;;1.60;74.76
13407;BME280;6774;48.208;10.766;2023-03-01T03:53:16;95959.47;;;1.55;75.17
13407;BME280;6774;48.208;10.766;2023-03-01T03:55:44;95963.84;;;1.55;74.86
13407;BME280;6774;48.208;10.766;2023-03-01T03:58:11;95954.91;;;1.48;74.86
13407;BME280;6774;48.208;10.766;2023-03-01T04:00:41;95946.84;;;1.51;75.56
13407;BME280;6774;48.208;10.766;2023-03-01T04:03:12;95957.81;;;1.54;75.20
13407;BME280;6774;48.208;10.766;2023-03-01T04:05:41;95953.94;;;1.49;74.87
13407;BME280;6774;48.208;10.766;2023-03-01T04:08:09;95945.66;;;1.55;75.21
13407;BME280;6774;48.208;10.766;2023-03-01T04:10:38;95943.28;;;1.52;74.97
13407;BME280;6774;48.208;10.766;2023-03-01T04:13:08;95944.25;;;1.51;74.90
13407;BME280;6774;48.208;10.766;2023-03-01T04:15:37;95934.31;;;1.56;75.10
13407;BME280;6774;48.208;10.766;2023-03-01T04:18:05;95938.09;;;1.52;75.09
13407;BME280;6774;48.208;10.766;2023-03-01T04:20:35;95942.72;;;1.48;75.08
13407;BME280;6774;48.208;10.766;2023-03-01T04:23:05;95941.28;;;1.44;75.86
13407;BME280;6774;48.208;10.766;2023-03-01T04:25:40;95930.44;;;1.39;75.15
13407;BME280;6774;48.208;10.766;2023-03-01T04:28:09;95926.50;;;1.45;75.95
13407;BME280;6774;48.208;10.766;2023-03-01T04:30:38;95928.16;;;1.46;75.07
13407;BME280;6774;48.208;10.766;2023-03-01T04:33:09;95930.31;;;1.40;75.22
13407;BME280;6774;48.208;10.766;2023-03-01T04:35:39;95925.81;;;1.42;75.57
13407;BME280;6774;48.208;10.766;2023-03-01T04:38:07;95921.09;;;1.48;75.02
13407;BME280;6774;48.208;10.766;2023-03-01T04:40:36;95922.75;;;1.49;75.13
13407;BME280;6774;48.208;10.766;2023-03-01T04:43:04;95931.97;;;1.41;75.65
13407;BME280;6774;48.208;10.766;2023-03-01T04:45:32;95931.72;;;1.45;74.89
13407;BME280;6774;48.208;10.766;2023-03-01T04:48:02;95923.78;;;1.46;74.65
13407;BME280;6774;48.208;10.766;2023-03-01T04:50:30;95936.47;;;1.39;74.40
13407;BME280;6774;48.208;10.766;2023-03-01T04:52:59;95925.25;;;1.28;74.82
13407;BME280;6774;48.208;10.766;2023-03-01T04:55:28;95922.28;;;1.32;74.56
13407;BME280;6774;48.208;10.766;2023-03-01T04:57:56;95923.34;;;1.41;74.49
13407;BME280;6774;48.208;10.766;2023-03-01T05:00:24;95927.84;;;1.28;74.19
13407;BME280;6774;48.208;10.766;2023-03-01T05:02:53;95923.69;;;1.36;73.46
13407;BME280;6774;48.208;10.766;2023-03-01T05:05:23;95918.50;;;1.36;74.34
13407;BME280;6774;48.208;10.766;2023-03-01T05:07:53;95920.66;;;1.31;74.31
13407;BME280;6774;48.208;10.766;2023-03-01T05:10:24;95916.28;;;1.32;74.76
13407;BME280;6774;48.208;10.766;2023-03-01T05:12:52;95909.53;;;1.40;74.62
13407;BME280;6774;48.208;10.766;2023-03-01T05:15:20;95911.53;;;1.48;73.98
13407;BME280;6774;48.208;10.766;2023-03-01T05:17:52;95902.41;;;1.42;74.32
13407;BME280;6774;48.208;10.766;2023-03-01T05:20:21;95906.44;;;1.35;74.85
13407;BME280;6774;48.208;10.766;2023-03-01T05:22:50;95906.22;;;1.38;73.93
13407;BME280;6774;48.208;10.766;2023-03-01T05:25:18;95907.41;;;1.34;74.08
13407;BME280;6774;48.208;10.766;2023-03-01T05:27:49;95908.59;;;1.30;73.51
13407;BME280;6774;48.208;10.766;2023-03-01T05:30:18;95905.03;;;1.31;74.07
13407;BME280;6774;48.208;10.766;2023-03-01T05:32:47;95907.66;;;1.31;73.93
13407;BME280;6774;48.208;10.766;2023-03-01T05:35:17;95905.88;;;1.32;73.73
13407;BME280;6774;48.208;10.766;2023-03-01T05:37:47;95908.50;;;1.21;73.12
13407;BME280;6774;48.208;10.766;2023-03-01T05:40:18;95906.94;;;1.29;73.56
13407;BME280;6774;48.208;10.766;2023-03-01T05:42:49;95908.34;;;1.33;73.56
13407;BME280;6774;48.208;10.766;2023-03-01T05:45:18;95906.56;;;1.34;73.43
13407;BME280;6774;48.208;10.766;2023-03-01T05:47:47;95905.41;;;1.27;72.72
13407;BME280;6774;48.208;10.766;2023-03-01T05:50:17;95900.81;;;1.30;73.02
13407;BME280;6774;48.208;10.766;2023-03-01T05:52:47;95896.31;;;1.32;72.49
13407;BME280;6774;48.208;10.766;2023-03-01T05:55:16;95909.06;;;1.24;72.72
13407;BME280;6774;48.208;10.766;2023-03-01T05:57:44;95913.56;;;1.22;72.71
13407;BME280;6774;48.208;10.766;2023-03-01T06:00:16;95912.75;;;1.22;72.97
13407;BME280;6774;48.208;10.766;2023-03-01T06:02:44;95912.41;;;1.04;73.22
13407;BME280;6774;48.208;10.766;2023-03-01T06:05:13;95906.03;;;1.19;72.01
13407;BME280;6774;48.208;10.766;2023-03-01T06:07:42;95917.25;;;1.20;73.18
13407;BME280;6774;48.208;10.766;2023-03-01T06:10:11;95917.13;;;1.21;72.65
13407;BME280;6774;48.208;10.766;2023-03-01T06:12:40;95916.50;;;1.18;73.24
13407;BME280;6774;48.208;10.766;2023-03-01T06:15:11;95914.41;;;1.11;73.03
13407;BME280;6774;48.208;10.766;2023-03-01T06:17:41;95919.75;;;1.10;72.37
13407;BME280;6774;48.208;10.766;2023-03-01T06:20:12;95926.34;;;1.14;72.38
13407;BME280;6774;48.208;10.766;2023-03-01T06:22:41;95917.00;;;1.11;72.21
13407;BME280;6774;48.208;10.766;2023-03-01T06:25:10;95925.41;;;1.04;72.35
13407;BME280;6774;48.208;10.766;2023-03-01T06:27:39;95915.97;;;1.03;71.96
13407;BME280;6774;48.208;10.766;2023-03-01T06:30:08;95920.22;;;0.93;72.55
13407;BME280;6774;48.208;10.766;2023-03-01T06:32:39;95916.31;;;0.87;72.11
13407;BME280;6774;48.208;10.766;2023-03-01T06:35:10;95918.06;;;0.98;72.20
13407;BME280;6774;48.208;10.766;2023-03-01T06:37:38;95918.78;;;0.89;72.27
13407;BME280;6774;48.208;10.766;2023-03-01T06:40:07;95915.72;;;0.83;72.54
13407;BME280;6774;48.208;10.766;2023-03-01T06:42:40;95923.50;;;0.72;73.18
13407;BME280;6774;48.208;10.766;2023-03-01T06:45:09;95925.88;;;0.75;72.08
13407;BME280;6774;48.208;10.766;2023-03-01T06:47:36;95917.47;;;0.72;72.45
13407;BME280;6774;48.208;10.766;2023-03-01T06:50:07;95915.38;;;0.77;73.05
13407;BME280;6774;48.208;10.766;2023-03-01T06:52:35;95917.38;;;0.84;71.97
13407;BME280;6774;48.208;10.766;2023-03-01T06:55:03;95923.63;;;0.82;73.05
13407;BME280;6774;48.208;10.766;2023-03-01T06:57:31;95920.09;;;0.83;72.51
13407;BME280;6774;48.208;10.766;2023-03-01T06:59:59;95923.03;;;0.78;72.45
13407;BME280;6774;48.208;10.766;2023-03-01T07:02:27;95923.97;;;0.66;72.19
13407;BME280;6774;48.208;10.766;2023-03-01T07:04:55;95920.81;;;0.74;73.14
13407;BME280;6774;48.208;10.766;2023-03-01T07:07:24;95933.19;;;0.81;73.04
13407;BME280;6774;48.208;10.766;2023-03-01T07:09:52;95919.97;;;0.84;72.13
13407;BME280;6774;48.208;10.766;2023-03-01T07:12:20;95918.78;;;0.89;71.86
13407;BME280;6774;48.208;10.766;2023-03-01T07:14:48;95919.13;;;0.73;72.81
13407;BME280;6774;48.208;10.766;2023-03-01T07:17:16;95920.22;;;0.93;72.24
13407;BME280;6774;48.208;10.766;2023-03-01T07:19:45;95915.47;;;0.87;72.41
13407;BME280;6774;48.208;10.766;2023-03-01T07:22:12;95915.47;;;0.87;72.28
13407;BME280;6774;48.208;10.766;2023-03-01T07:24:41;95917.00;;;0.89;71.55
13407;BME280;6774;48.208;10.766;2023-03-01T07:27:10;95915.25;;;0.90;72.16
13407;BME280;6774;48.208;10.766;2023-03-01T07:29:37;95915.59;;;0.96;71.30
13407;BME280;6774;48.208;10.766;2023-03-01T07:32:06;95912.41;;;0.93;72.39
13407;BME280;6774;48.208;10.766;2023-03-01T07:34:34;95915.34;;;0.99;71.69
13407;BME280;6774;48.208;10.766;2023-03-01T07:37:02;95913.81;;;0.97;72.36
13407;BME280;6774;48.208;10.766;2023-03-01T07:39:30;95912.88;;;0.87;71.92
13407;BME280;6774;48.208;10.766;2023-03-01T07:41:59;95910.50;;;1.06;72.27
13407;BME280;6774;48.208;10.766;2023-03-01T07:44:27;95905.28;;;1.17;72.81
13407;BME280;6774;48.208;10.766;2023-03-01T07:46:55;95904.34;;;1.18;71.80
13407;BME280;6774;48.208;10.766;2023-03-01T07:49:24;95899.66;;;1.12;71.39
13407;BME280;6774;48.208;10.766;2023-03-01T07:51:54;95893.94;;;1.18;71.53
13407;BME280;6774;48.208;10.766;2023-03-01T07:54:22;95896.16;;;1.34;71.54
13407;BME280;6774;48.208;10.766;2023-03-01T07:56:51;95891.56;;;1.26;70.92
13407;BME280;6774;48.208;10.766;2023-03-01T07:59:20;95882.34;;;1.33;70.87
13407;BME280;6774;48.208;10.766;2023-03-01T08:01:50;95886.97;;;1.30;70.89
13407;BME280;6774;48.208;10.766;2023-03-01T08:04:18;95881.03;;;1.39;70.17
13407;BME280;6774;48.208;10.766;2023-03-01T08:06:46;95885.91;;;1.32;70.28
13407;BME280;6774;48.208;10.766;2023-03-01T08:09:14;95888.75;;;1.29;70.13
13407;BME280;6774;48.208;10.766;2023-03-01T08:11:42;95896.03;;;1.35;70.95
13407;BME280;6774;48.208;10.766;2023-03-01T08:14:10;95896.53;;;1.40;70.95
13407;BME280;6774;48.208;10.766;2023-03-01T08:16:39;95889.56;;;1.30;70.75
13407;BME280;6774;48.208;10.766;2023-03-01T08:19:07;95891.53;;;1.49;71.60
13407;BME280;6774;48.208;10.766;2023-03-01T08:21:35;95889.16;;;1.46;69.91
13407;BME280;6774;48.208;10.766;2023-03-01T08:24:04;95885.41;;;1.27;69.99
13407;BME280;6774;48.208;10.766;2023-03-01T08:26:33;95883.31;;;1.21;70.75
13407;BME280;6774;48.208;10.766;2023-03-01T08:29:02;95887.19;;;1.27;70.47
13407;BME280;6774;48.208;10.766;2023-03-01T08:31:32;95891.53;;;1.49;71.05
13407;BME280;6774;48.208;10.766;2023-03-01T08:34:05;95881.88;;;1.39;70.86
13407;BME280;6774;48.208;10.766;2023-03-01T08:36:36;95889.88;;;1.48;71.03
13407;BME280;6774;48.208;10.766;2023-03-01T08:39:05;95889.97;;;1.57;70.69
13407;BME280;6774;48.208;10.766;2023-03-01T08:41:33;95888.22;;;1.79;69.46
13407;BME280;6774;48.208;10.766;2023-03-01T08:44:01;95875.63;;;1.74;69.78
13407;BME280;6774;48.208;10.766;2023-03-01T08:46:31;95878.91;;;1.76;69.90
13407;BME280;6774;48.208;10.766;2023-03-01T08:48:59;95882.28;;;1.88;70.07
13407;BME280;6774;48.208;10.766;2023-03-01T08:51:29;95881.19;;;1.90;70.16
13407;BME280;6774;48.208;10.766;2023-03-01T08:53:58;95874.59;;;1.86;70.03
13407;BME280;6774;48.208;10.766;2023-03-01T08:56:26;95887.81;;;1.94;69.05
13407;BME280;6774;48.208;10.766;2023-03-01T08:58:54;95880.72;;;1.96;69.34
13407;BME280;6774;48.208;10.766;2023-03-01T09:01:22;95880.31;;;2.01;69.77
13407;BME280;6774;48.208;10.766;2023-03-01T09:03:50;95873.03;;;1.95;69.13
13407;BME280;6774;48.208;10.766;2023-03-01T09:06:18;95877.34;;;2.06;68.58
13407;BME280;6774;48.208;10.766;2023-03-01T09:08:49;95869.34;;;1.97;69.20
13407;BME280;6774;48.208;10.766;2023-03-01T09:11:19;95857.00;;;2.11;68.41
13407;BME280;6774;48.208;10.766;2023-03-01T09:13:49;95863.50;;;2.05;69.57
13407;BME280;6774;48.208;10.766;2023-03-01T09:16:18;95848.66;;;2.17;69.35
13407;BME280;6774;48.208;10.766;2023-03-01T09:18:49;95851.72;;;2.22;68.55
13407;BME280;6774;48.208;10.766;2023-03-01T09:21:18;95855.75;;;2.36;68.73
13407;BME280;6774;48.208;10.766;2023-03-01T09:24:06;95854.16;;;2.44;68.98
13407;BME280;6774;48.208;10.766;2023-03-01T09:26:35;95853.91;;;2.47;68.38
13407;BME280;6774;48.208;10.766;2023-03-01T09:29:03;95855.66;;;2.47;68.80
13407;BME280;6774;48.208;10.766;2023-03-01T09:31:31;95848.38;;;2.41;68.44
13407;BME280;6774;48.208;10.766;2023-03-01T09:33:59;95854.50;;;2.61;68.19
13407;BME280;6774;48.208;10.766;2023-03-01T09:36:27;95853.72;;;2.70;67.52
13407;BME280;6774;48.208;10.766;2023-03-01T09:38:57;95850.44;;;2.68;67.96
13407;BME280;6774;48.208;10.766;2023-03-01T09:41:49;95853.72;;;2.70;67.16
13407;BME280;6774;48.208;10.766;2023-03-01T09:44:27;95854.88;;;2.77;67.38
13407;BME280;6774;48.208;10.766;2023-03-01T09:46:56;95857.44;;;2.67;67.63
13407;BME280;6774;48.208;10.766;2023-03-01T09:49:26;95855.97;;;2.53;67.29
13407;BME280;6774;48.208;10.766;2023-03-01T09:51:58;95849.44;;;2.59;68.06
13407;BME280;6774;48.208;10.766;2023-03-01T09:54:27;95853.56;;;2.62;68.11
13407;BME280;6774;48.208;10.766;2023-03-01T09:57:19;95851.81;;;2.72;68.13
13407;BME280;6774;48.208;10.766;2023-03-01T10:00:01;95850.19;;;2.80;67.22
13407;BME280;6774;48.208;10.766;2023-03-01T10:02:39;95848.72;;;2.88;67.75
13407;BME280;6774;48.208;10.766;2023-03-01T10:05:18;95851.59;;;2.84;68.33
13407;BME280;6774;48.208;10.766;2023-03-01T10:07:54;95846.69;;;3.01;67.15
13407;BME280;6774;48.208;10.766;2023-03-01T10:10:28;95845.22;;;3.08;66.98
13407;BME280;6774;48.208;10.766;2023-03-01T10:12:59;95839.59;;;3.03;67.30
13407;BME280;6774;48.208;10.766;2023-03-01T10:15:34;95848.53;;;3.20;67.41
13407;BME280;6774;48.208;10.766;2023-03-01T10:18:06;95842.34;;;3.11;67.40
13407;BME280;6774;48.208;10.766;2023-03-01T10:20:44;95832.31;;;3.06;66.75
13407;BME280;6774;48.208;10.766;2023-03-01T10:23:13;95828.59;;;3.09;67.05
13407;BME280;6774;48.208;10.766;2023-03-01T10:25:52;95819.81;;;3.10;67.72
13407;BME280;6774;48.208;10.766;2023-03-01T10:28:31;95819.00;;;3.09;68.14
13407;BME280;6774;48.208;10.766;2023-03-01T10:31:05;95810.94;;;3.22;66.98
13407;BME280;6774;48.208;10.766;2023-03-01T10:33:40;95812.59;;;3.33;67.20
13407;BME280;6774;48.208;10.766;2023-03-01T10:36:09;95802.16;;;3.33;67.19
13407;BME280;6774;48.208;10.766;2023-03-01T10:38:50;95810.28;;;3.30;66.42
13407;BME280;6774;48.208;10.766;2023-03-01T10:41:20;95809.72;;;3.36;66.85
13407;BME280;6774;48.208;10.766;2023-03-01T10:43:52;95822.38;;;3.50;66.79
13407;BME280;6774;48.208;10.766;2023-03-01T10:46:27;95825.78;;;3.31;67.03
13407;BME280;6774;48.208;10.766;2023-03-01T10:49:15;95824.56;;;3.45;66.82
13407;BME280;6774;48.208;10.766;2023-03-01T10:51:46;95816.72;;;3.45;66.52
13407;BME280;6774;48.208;10.766;2023-03-01T10:54:16;95819.47;;;3.53;65.88
13407;BME280;6774;48.208;10.766;2023-03-01T10:56:50;95819.09;;;3.77;66.17
13407;BME280;6774;48.208;10.766;2023-03-01T10:59:25;95813.56;;;3.80;65.68
13407;BME280;6774;48.208;10.766;2023-03-01T11:02:14;95801.19;;;3.92;65.11
13407;BME280;6774;48.208;10.766;2023-03-01T11:04:59;95798.03;;;3.98;64.68
13407;BME280;6774;48.208;10.766;2023-03-01T11:07:28;95800.34;;;4.01;64.67
13407;BME280;6774;48.208;10.766;2023-03-01T11:09:56;95806.09;;;4.24;64.59
13407;BME280;6774;48.208;10.766;2023-03-01T11:12:24;95793.72;;;4.16;63.90
13407;BME280;6774;48.208;10.766;2023-03-01T11:14:57;95790.59;;;4.60;64.14
13407;BME280;6774;48.208;10.766;2023-03-01T11:17:28;95779.31;;;4.59;63.26
13407;BME280;6774;48.208;10.766;2023-03-01T11:20:15;95784.09;;;4.26;63.67
13407;BME280;6774;48.208;10.766;2023-03-01T11:22:47;95780.81;;;4.15;63.75
13407;BME280;6774;48.208;10.766;2023-03-01T11:25:17;95765.94;;;4.25;64.56
13407;BME280;6774;48.208;10.766;2023-03-01T11:27:47;95773.00;;;4.05;64.21
13407;BME280;6774;48.208;10.766;2023-03-01T11:30:20;95775.88;;;4.21;64.63
13407;BME280;6774;48.208;10.766;2023-03-01T11:32:58;95774.50;;;4.08;64.66
13407;BME280;6774;48.208;10.766;2023-03-01T11:35:32;95767.50;;;4.45;64.15
13407;BME280;6774;48.208;10.766;2023-03-01T11:38:15;95759.16;;;4.69;63.53
13407;BME280;6774;48.208;10.766;2023-03-01T11:40:47;95750.13;;;5.09;63.10
13407;BME280;6774;48.208;10.766;2023-03-01T11:43:28;95745.47;;;5.74;61.05
13407;BME280;6774;48.208;10.766;2023-03-01T11:46:19;95734.78;;;6.37;59.93
13407;BME280;6774;48.208;10.766;2023-03-01T11:48:59;95726.00;;;6.89;58.96
13407;BME280;6774;48.208;10.766;2023-03-01T11:51:41;95720.66;;;7.31;57.22
13407;BME280;6774;48.208;10.766;2023-03-01T11:54:15;95708.56;;;7.62;55.62
13407;BME280;6774;48.208;10.766;2023-03-01T11:56:48;95714.72;;;8.26;56.01
13407;BME280;6774;48.208;10.766;2023-03-01T11:59:34;95696.59;;;8.48;54.68
13407;BME280;6774;48.208;10.766;2023-03-01T12:05:38;95687.16;;;9.01;53.78
13407;BME280;6774;48.208;10.766;2023-03-01T12:08:17;95679.03;;;9.10;51.68
13407;BME280;6774;48.208;10.766;2023-03-01T12:10:56;95686.44;;;9.15;52.26
13407;BME280;6774;48.208;10.766;2023-03-01T12:13:44;95676.72;;;9.76;51.67
13407;BME280;6774;48.208;10.766;2023-03-01T12:16:29;95676.88;;;9.97;52.06
13407;BME280;6774;48.208;10.766;2023-03-01T12:19:22;95660.84;;;10.37;51.46
13407;BME280;6774;48.208;10.766;2023-03-01T12:22:01;95662.03;;;9.96;52.03
13407;BME280;6774;48.208;10.766;2023-03-01T12:24:47;95662.41;;;9.56;52.05
13407;BME280;6774;48.208;10.766;2023-03-01T12:27:30;95661.16;;;9.29;52.71
13407;BME280;6774;48.208;10.766;2023-03-01T12:30:15;95657.22;;;9.02;52.68
13407;BME280;6774;48.208;10.766;2023-03-01T12:32:55;95655.75;;;9.22;54.06
13407;BME280;6774;48.208;10.766;2023-03-01T12:35:40;95654.06;;;8.75;52.97
13407;BME280;6774;48.208;10.766;2023-03-01T12:38:24;95661.56;;;8.87;53.74
13407;BME280;6774;48.208;10.766;2023-03-01T12:41:20;95645.88;;;8.70;52.95
13407;BME280;6774;48.208;10.766;2023-03-01T12:44:01;95640.88;;;8.83;53.31
13407;BME280;6774;48.208;10.766;2023-03-01T12:46:46;95636.91;;;9.56;53.43
13407;BME280;6774;48.208;10.766;2023-03-01T12:49:22;95632.34;;;9.27;52.43
13407;BME280;6774;48.208;10.766;2023-03-01T12:51:55;95642.88;;;8.81;53.22
13407;BME280;6774;48.208;10.766;2023-03-01T12:54:27;95647.69;;;9.01;54.94
13407;BME280;6774;48.208;10.766;2023-03-01T12:56:57;95641.13;;;9.43;54.23
13407;BME280;6774;48.208;10.766;2023-03-01T12:59:36;95635.78;;;9.51;53.69
13407;BME280;6774;48.208;10.766;2023-03-01T13:02:14;95628.75;;;9.05;53.69
13407;BME280;6774;48.208;10.766;2023-03-01T13:05:06;95628.72;;;9.28;55.27
13407;BME280;6774;48.208;10.766;2023-03-01T13:07:38;95615.84;;;9.10;53.21
13407;BME280;6774;48.208;10.766;2023-03-01T13:10:18;95614.88;;;8.58;53.88
13407;BME280;6774;48.208;10.766;2023-03-01T13:13:01;95627.00;;;8.19;55.50
13407;BME280;6774;48.208;10.766;2023-03-01T13:15:34;95627.25;;;8.49;55.24
13407;BME280;6774;48.208;10.766;2023-03-01T13:18:04;95628.00;;;8.18;56.08
13407;BME280;6774;48.208;10.766;2023-03-01T13:20:53;95629.38;;;7.98;56.39
13407;BME280;6774;48.208;10.766;2023-03-01T13:23:28;95633.94;;;8.04;56.91
13407;BME280;6774;48.208;10.766;2023-03-01T13:26:02;95629.56;;;8.44;56.86
13407;BME280;6774;48.208;10.766;2023-03-01T13:28:45;95637.78;;;8.41;57.48
13407;BME280;6774;48.208;10.766;2023-03-01T13:34:41;95618.03;;;8.53;56.73
13407;BME280;6774;48.208;10.766;2023-03-01T13:37:09;95617.84;;;8.54;56.84
13407;BME280;6774;48.208;10.766;2023-03-01T13:39:40;95626.19;;;8.58;56.01
13407;BME280;6774;48.208;10.766;2023-03-01T13:42:33;95629.28;;;8.70;56.71
13407;BME280;6774;48.208;10.766;2023-03-01T13:45:05;95632.25;;;8.19;56.31